sensor_id;sensor_type;location;lat;lon;timestamp;pressure;altitude;pressure_sealevel;temperature;humidity
50349;BME280;36250;48.740;22.174;2023-02-23T00:00:29;100676.28;;;6.24;54.57
50349;BME280;36250;48.740;22.174;2023-02-23T00:02:58;100674.63;;;6.23;53.75
50349;BME280;36250;48.740;22.174;2023-02-23T00:05:29;100671.72;;;6.18;53.84
50349;BME280;36250;48.740;22.174;2023-02-23T00:07:55;100675.25;;;6.18;54.19
50349;BME280;36250;48.740;22.174;2023-02-23T00:10:22;100666.94;;;6.20;53.74
50349;BME280;36250;48.740;22.174;2023-02-23T00:12:56;100675.47;;;6.17;54.62
50349;BME280;36250;48.740;22.174;2023-02-23T00:15:22;100675.47;;;6.17;54.10
50349;BME280;36250;48.740;22.174;2023-02-23T00:17:53;100672.75;;;6.17;54.72
50349;BME280;36250;48.740;22.174;2023-02-23T00:20:20;100674.84;;;6.15;54.71
50349;BME280;36250;48.740;22.174;2023-02-23T00:22:53;100680.47;;;6.13;54.77
50349;BME280;36250;48.740;22.174;2023-02-23T00:25:19;100673.00;;;6.09;54.48
50349;BME280;36250;48.740;22.174;2023-02-23T00:27:44;100673.00;;;6.09;55.03
50349;BME280;36250;48.740;22.174;2023-02-23T00:30:14;100676.09;;;6.06;54.92
50349;BME280;36250;48.740;22.174;2023-02-23T00:32:41;100677.53;;;6.02;55.35
50349;BME280;36250;48.740;22.174;2023-02-23T00:35:07;100666.13;;;6.00;54.96
50349;BME280;36250;48.740;22.174;2023-02-23T00:37:36;100676.94;;;6.00;55.30
50349;BME280;36250;48.740;22.174;2023-02-23T00:40:02;100668.81;;;6.00;54.75
50349;BME280;36250;48.740;22.174;2023-02-23T00:42:35;100674.22;;;6.00;54.96
50349;BME280;36250;48.740;22.174;2023-02-23T00:45:01;100672.13;;;6.02;54.80
50349;BME280;36250;48.740;22.174;2023-02-23T00:47:32;100672.97;;;6.02;54.79
50349;BME280;36250;48.740;22.174;2023-02-23T00:49:57;100679.00;;;6.04;54.86
50349;BME280;36250;48.740;22.174;2023-02-23T00:52:23;100686.72;;;6.01;54.83
50349;BME280;36250;48.740;22.174;2023-02-23T00:54:48;100680.88;;;5.97;54.72
50349;BME280;36250;48.740;22.174;2023-02-23T00:57:13;100674.25;;;5.93;54.65
50349;BME280;36250;48.740;22.174;2023-02-23T00:59:39;100674.25;;;5.86;56.88
50349;BME280;36250;48.740;22.174;2023-02-23T01:02:04;100677.97;;;5.79;57.84
50349;BME280;36250;48.740;22.174;2023-02-23T01:04:29;100682.53;;;5.72;58.07
50349;BME280;36250;48.740;22.174;2023-02-23T01:06:55;100687.28;;;5.63;58.08
50349;BME280;36250;48.740;22.174;2023-02-23T01:09:20;100682.94;;;5.62;57.36
50349;BME280;36250;48.740;22.174;2023-02-23T01:11:52;100682.50;;;5.65;58.20
50349;BME280;36250;48.740;22.174;2023-02-23T01:14:20;100684.41;;;5.65;57.79
50349;BME280;36250;48.740;22.174;2023-02-23T01:16:46;100677.53;;;5.62;56.67
50349;BME280;36250;48.740;22.174;2023-02-23T01:19:11;100683.13;;;5.61;55.78
50349;BME280;36250;48.740;22.174;2023-02-23T01:21:40;100679.81;;;5.59;56.37
50349;BME280;36250;48.740;22.174;2023-02-23T01:24:09;100679.16;;;5.50;56.76
50349;BME280;36250;48.740;22.174;2023-02-23T01:26:43;100674.81;;;5.43;56.49
50349;BME280;36250;48.740;22.174;2023-02-23T01:29:14;100678.53;;;5.35;56.66
50349;BME280;36250;48.740;22.174;2023-02-23T01:31:46;100675.19;;;5.26;56.64
50349;BME280;36250;48.740;22.174;2023-02-23T01:34:13;100679.94;;;5.18;56.63
50349;BME280;36250;48.740;22.174;2023-02-23T01:36:40;100671.00;;;5.11;57.01
50349;BME280;36250;48.740;22.174;2023-02-23T01:39:09;100668.25;;;5.04;57.10
50349;BME280;36250;48.740;22.174;2023-02-23T01:41:36;100675.31;;;4.99;56.82
50349;BME280;36250;48.740;22.174;2023-02-23T01:46:41;100663.44;;;4.87;57.37
50349;BME280;36250;48.740;22.174;2023-02-23T01:49:12;100667.97;;;4.80;57.99
50349;BME280;36250;48.740;22.174;2023-02-23T01:51:49;100662.34;;;4.75;58.04
50349;BME280;36250;48.740;22.174;2023-02-23T01:54:23;100661.09;;;4.71;58.34
50349;BME280;36250;48.740;22.174;2023-02-23T01:56:54;100665.63;;;4.63;59.26
50349;BME280;36250;48.740;22.174;2023-02-23T01:59:31;100669.94;;;4.51;59.48
50349;BME280;36250;48.740;22.174;2023-02-23T02:01:58;100664.84;;;4.35;60.59
50349;BME280;36250;48.740;22.174;2023-02-23T02:04:24;100672.88;;;4.22;60.90
50349;BME280;36250;48.740;22.174;2023-02-23T02:06:51;100672.16;;;4.14;61.13
50349;BME280;36250;48.740;22.174;2023-02-23T02:09:18;100667.75;;;4.06;60.99
50349;BME280;36250;48.740;22.174;2023-02-23T02:11:44;100667.69;;;3.93;61.91
50349;BME280;36250;48.740;22.174;2023-02-23T02:14:21;100668.41;;;3.80;62.26
50349;BME280;36250;48.740;22.174;2023-02-23T02:20:23;100668.84;;;3.84;61.67
50349;BME280;36250;48.740;22.174;2023-02-23T02:25:59;100666.69;;;3.73;62.21
50349;BME280;36250;48.740;22.174;2023-02-23T02:28:37;100658.81;;;3.71;62.72
50349;BME280;36250;48.740;22.174;2023-02-23T02:34:29;100672.63;;;3.62;62.85
50349;BME280;36250;48.740;22.174;2023-02-23T02:42:33;100677.75;;;3.57;61.86
50349;BME280;36250;48.740;22.174;2023-02-23T02:45:16;100674.47;;;3.61;62.61
50349;BME280;36250;48.740;22.174;2023-02-23T02:47:56;100678.44;;;3.65;62.22
50349;BME280;36250;48.740;22.174;2023-02-23T02:53:07;100678.22;;;3.67;62.60
50349;BME280;36250;48.740;22.174;2023-02-23T02:55:34;100674.50;;;3.68;61.64
50349;BME280;36250;48.740;22.174;2023-02-23T02:58:04;100672.84;;;3.67;61.21
50349;BME280;36250;48.740;22.174;2023-02-23T03:00:37;100672.03;;;3.66;61.88
50349;BME280;36250;48.740;22.174;2023-02-23T03:06:14;100674.91;;;3.65;61.47
50349;BME280;36250;48.740;22.174;2023-02-23T03:09:02;100676.69;;;3.58;61.42
50349;BME280;36250;48.740;22.174;2023-02-23T03:11:53;100672.75;;;3.54;62.04
50349;BME280;36250;48.740;22.174;2023-02-23T03:17:51;100673.06;;;3.44;62.02
50349;BME280;36250;48.740;22.174;2023-02-23T03:20:46;100680.88;;;3.39;61.56
50349;BME280;36250;48.740;22.174;2023-02-23T03:24:04;100679.56;;;3.35;61.78
50349;BME280;36250;48.740;22.174;2023-02-23T03:26:52;100682.53;;;3.40;62.02
50349;BME280;36250;48.740;22.174;2023-02-23T03:32:51;100678.97;;;3.54;61.40
50349;BME280;36250;48.740;22.174;2023-02-23T03:35:50;100675.69;;;3.59;61.18
50349;BME280;36250;48.740;22.174;2023-02-23T03:38:52;100674.47;;;3.61;61.90
50349;BME280;36250;48.740;22.174;2023-02-23T03:41:42;100673.25;;;3.64;61.99
50349;BME280;36250;48.740;22.174;2023-02-23T03:44:34;100672.84;;;3.67;60.90
50349;BME280;36250;48.740;22.174;2023-02-23T03:47:23;100677.66;;;3.71;61.39
50349;BME280;36250;48.740;22.174;2023-02-23T03:50:15;100677.25;;;3.74;60.83
50349;BME280;36250;48.740;22.174;2023-02-23T03:53:02;100682.47;;;3.76;61.02
50349;BME280;36250;48.740;22.174;2023-02-23T03:55:51;100680.19;;;3.79;60.86
50349;BME280;36250;48.740;22.174;2023-02-23T03:58:39;100680.88;;;3.81;60.83
50349;BME280;36250;48.740;22.174;2023-02-23T04:01:28;100683.31;;;3.76;61.79
50349;BME280;36250;48.740;22.174;2023-02-23T04:04:14;100691.03;;;3.65;62.17
50349;BME280;36250;48.740;22.174;2023-02-23T04:07:00;100691.38;;;3.55;62.52
50349;BME280;36250;48.740;22.174;2023-02-23T04:09:45;100683.00;;;3.44;63.57
50349;BME280;36250;48.740;22.174;2023-02-23T04:12:34;100687.47;;;3.37;64.67
50349;BME280;36250;48.740;22.174;2023-02-23T04:15:30;100693.59;;;3.30;65.53
50349;BME280;36250;48.740;22.174;2023-02-23T04:17:57;100698.72;;;3.25;64.93
50349;BME280;36250;48.740;22.174;2023-02-23T04:20:23;100682.78;;;3.24;65.21
50349;BME280;36250;48.740;22.174;2023-02-23T04:22:50;100687.69;;;3.20;65.88
50349;BME280;36250;48.740;22.174;2023-02-23T04:25:16;100689.75;;;3.18;65.76
50349;BME280;36250;48.740;22.174;2023-02-23T04:27:43;100688.09;;;3.17;65.96
50349;BME280;36250;48.740;22.174;2023-02-23T04:30:09;100680.84;;;3.18;66.67
50349;BME280;36250;48.740;22.174;2023-02-23T04:32:35;100687.69;;;3.20;65.60
50349;BME280;36250;48.740;22.174;2023-02-23T04:35:02;100690.41;;;3.20;65.88
50349;BME280;36250;48.740;22.174;2023-02-23T04:37:27;100699.31;;;3.21;64.98
50349;BME280;36250;48.740;22.174;2023-02-23T04:39:52;100692.06;;;3.21;65.04
50349;BME280;36250;48.740;22.174;2023-02-23T04:42:18;100689.38;;;3.21;64.69
50349;BME280;36250;48.740;22.174;2023-02-23T04:44:44;100690.22;;;3.22;65.09
50349;BME280;36250;48.740;22.174;2023-02-23T04:47:10;100703.03;;;3.20;64.72
50349;BME280;36250;48.740;22.174;2023-02-23T04:49:36;100697.56;;;3.13;64.87
50349;BME280;36250;48.740;22.174;2023-02-23T04:52:02;100694.53;;;3.02;64.95
50349;BME280;36250;48.740;22.174;2023-02-23T04:54:27;100697.53;;;2.92;66.09
50349;BME280;36250;48.740;22.174;2023-02-23T04:56:52;100687.72;;;2.85;66.12
50349;BME280;36250;48.740;22.174;2023-02-23T04:59:18;100696.34;;;2.80;65.96
50349;BME280;36250;48.740;22.174;2023-02-23T05:01:43;100696.94;;;2.61;65.42
50349;BME280;36250;48.740;22.174;2023-02-23T05:04:09;100692.84;;;2.50;65.83
50349;BME280;36250;48.740;22.174;2023-02-23T05:06:34;100703.31;;;2.45;65.77
50349;BME280;36250;48.740;22.174;2023-02-23T05:09:00;100703.69;;;2.42;66.37
50349;BME280;36250;48.740;22.174;2023-02-23T05:11:27;100698.44;;;2.34;65.82
50349;BME280;36250;48.740;22.174;2023-02-23T05:13:53;100694.97;;;2.26;66.09
50349;BME280;36250;48.740;22.174;2023-02-23T05:16:18;100708.41;;;2.26;66.38
50349;BME280;36250;48.740;22.174;2023-02-23T05:18:44;100705.72;;;2.26;66.60
50349;BME280;36250;48.740;22.174;2023-02-23T05:21:09;100704.44;;;2.22;65.89
50349;BME280;36250;48.740;22.174;2023-02-23T05:23:35;100705.28;;;2.22;66.36
50349;BME280;36250;48.740;22.174;2023-02-23T05:26:06;100702.59;;;2.22;66.41
50349;BME280;36250;48.740;22.174;2023-02-23T05:28:34;100701.84;;;2.28;66.58
50349;BME280;36250;48.740;22.174;2023-02-23T05:31:00;100703.31;;;2.31;66.74
50349;BME280;36250;48.740;22.174;2023-02-23T05:33:28;100706.84;;;2.31;66.63
50349;BME280;36250;48.740;22.174;2023-02-23T05:35:53;100708.78;;;2.37;66.18
50349;BME280;36250;48.740;22.174;2023-02-23T05:38:19;100713.91;;;2.47;65.57
50349;BME280;36250;48.740;22.174;2023-02-23T05:40:45;100712.59;;;2.57;65.71
50349;BME280;36250;48.740;22.174;2023-02-23T05:43:10;100719.34;;;2.68;65.13
50349;BME280;36250;48.740;22.174;2023-02-23T05:45:42;100713.69;;;2.78;64.68
50349;BME280;36250;48.740;22.174;2023-02-23T05:48:08;100715.88;;;2.89;64.11
50349;BME280;36250;48.740;22.174;2023-02-23T05:50:34;100718.72;;;3.16;63.58
50349;BME280;36250;48.740;22.174;2023-02-23T05:52:59;100714.38;;;3.37;63.20
50349;BME280;36250;48.740;22.174;2023-02-23T05:55:25;100722.09;;;3.40;62.41
50349;BME280;36250;48.740;22.174;2023-02-23T05:57:51;100723.47;;;3.36;62.52
50349;BME280;36250;48.740;22.174;2023-02-23T06:00:17;100718.28;;;3.34;62.42
50349;BME280;36250;48.740;22.174;2023-02-23T06:02:42;100726.72;;;3.31;62.09
50349;BME280;36250;48.740;22.174;2023-02-23T06:05:10;100728.78;;;3.29;63.19
50349;BME280;36250;48.740;22.174;2023-02-23T06:07:36;100731.47;;;3.29;62.69
50349;BME280;36250;48.740;22.174;2023-02-23T06:10:03;100730.91;;;3.33;62.56
50349;BME280;36250;48.740;22.174;2023-02-23T06:12:28;100736.34;;;3.40;62.83
50349;BME280;36250;48.740;22.174;2023-02-23T06:14:53;100741.56;;;3.42;62.64
50349;BME280;36250;48.740;22.174;2023-02-23T06:17:19;100744.88;;;3.44;63.01
50349;BME280;36250;48.740;22.174;2023-02-23T06:19:44;100740.78;;;3.48;63.58
50349;BME280;36250;48.740;22.174;2023-02-23T06:22:09;100739.66;;;3.57;62.87
50349;BME280;36250;48.740;22.174;2023-02-23T06:24:35;100735.78;;;3.66;62.61
50349;BME280;36250;48.740;22.174;2023-02-23T06:27:00;100735.25;;;3.77;61.64
50349;BME280;36250;48.740;22.174;2023-02-23T06:29:26;100748.84;;;3.90;62.01
50349;BME280;36250;48.740;22.174;2023-02-23T06:31:51;100746.66;;;4.00;61.97
50349;BME280;36250;48.740;22.174;2023-02-23T06:34:16;100742.81;;;4.09;61.66
50349;BME280;36250;48.740;22.174;2023-02-23T06:36:42;100740.75;;;4.11;61.21
50349;BME280;36250;48.740;22.174;2023-02-23T06:39:09;100748.31;;;4.22;61.04
50349;BME280;36250;48.740;22.174;2023-02-23T06:41:35;100748.78;;;4.32;60.21
50349;BME280;36250;48.740;22.174;2023-02-23T06:44:00;100755.06;;;4.39;61.95
50349;BME280;36250;48.740;22.174;2023-02-23T06:46:26;100756.78;;;4.47;61.07
50349;BME280;36250;48.740;22.174;2023-02-23T06:48:55;100757.66;;;4.54;60.77
50349;BME280;36250;48.740;22.174;2023-02-23T06:51:22;100758.97;;;4.64;60.85
50349;BME280;36250;48.740;22.174;2023-02-23T06:53:47;100759.00;;;4.71;60.77
50349;BME280;36250;48.740;22.174;2023-02-23T06:56:12;100752.22;;;4.82;60.86
50349;BME280;36250;48.740;22.174;2023-02-23T06:58:39;100758.91;;;4.92;60.69
50349;BME280;36250;48.740;22.174;2023-02-23T07:01:05;100751.25;;;4.96;60.94
50349;BME280;36250;48.740;22.174;2023-02-23T07:03:31;100756.66;;;4.96;60.64
50349;BME280;36250;48.740;22.174;2023-02-23T07:05:56;100756.03;;;4.94;61.35
50349;BME280;36250;48.740;22.174;2023-02-23T07:08:21;100758.94;;;4.99;60.70
50349;BME280;36250;48.740;22.174;2023-02-23T07:10:47;100759.13;;;4.97;60.89
50349;BME280;36250;48.740;22.174;2023-02-23T07:13:12;100765.63;;;5.09;60.77
50349;BME280;36250;48.740;22.174;2023-02-23T07:15:39;100768.16;;;5.24;60.11
50349;BME280;36250;48.740;22.174;2023-02-23T07:18:05;100760.75;;;5.39;59.97
50349;BME280;36250;48.740;22.174;2023-02-23T07:20:31;100760.59;;;5.47;60.16
50349;BME280;36250;48.740;22.174;2023-02-23T07:22:58;100763.06;;;5.42;60.65
50349;BME280;36250;48.740;22.174;2023-02-23T07:25:25;100768.00;;;5.32;61.73
50349;BME280;36250;48.740;22.174;2023-02-23T07:27:51;100764.22;;;5.20;62.86
50349;BME280;36250;48.740;22.174;2023-02-23T07:30:19;100778.34;;;5.22;63.42
50349;BME280;36250;48.740;22.174;2023-02-23T07:32:44;100763.00;;;5.29;63.20
50349;BME280;36250;48.740;22.174;2023-02-23T07:35:10;100765.53;;;5.44;62.35
50349;BME280;36250;48.740;22.174;2023-02-23T07:37:35;100767.88;;;5.60;62.43
50349;BME280;36250;48.740;22.174;2023-02-23T07:40:01;100764.34;;;5.66;61.22
50349;BME280;36250;48.740;22.174;2023-02-23T07:42:26;100766.63;;;5.56;60.70
50349;BME280;36250;48.740;22.174;2023-02-23T07:44:51;100764.97;;;5.55;59.98
50349;BME280;36250;48.740;22.174;2023-02-23T07:47:17;100761.44;;;5.61;60.10
50349;BME280;36250;48.740;22.174;2023-02-23T07:49:42;100768.72;;;5.67;61.01
50349;BME280;36250;48.740;22.174;2023-02-23T07:52:07;100757.09;;;5.73;61.61
50349;BME280;36250;48.740;22.174;2023-02-23T07:54:33;100758.78;;;5.80;61.89
50349;BME280;36250;48.740;22.174;2023-02-23T07:56:58;100755.06;;;5.88;61.93
50349;BME280;36250;48.740;22.174;2023-02-23T07:59:24;100767.34;;;5.90;61.87
50349;BME280;36250;48.740;22.174;2023-02-23T08:01:49;100766.09;;;5.86;62.99
50349;BME280;36250;48.740;22.174;2023-02-23T08:04:16;100762.56;;;5.86;62.71
50349;BME280;36250;48.740;22.174;2023-02-23T08:06:42;100766.47;;;5.77;63.22
50349;BME280;36250;48.740;22.174;2023-02-23T08:09:07;100763.56;;;5.72;63.04
50349;BME280;36250;48.740;22.174;2023-02-23T08:11:33;100765.22;;;5.79;63.31
50349;BME280;36250;48.740;22.174;2023-02-23T08:13:58;100769.41;;;5.88;62.97
50349;BME280;36250;48.740;22.174;2023-02-23T08:16:30;100773.19;;;5.94;63.43
50349;BME280;36250;48.740;22.174;2023-02-23T08:18:57;100764.66;;;6.04;63.61
50349;BME280;36250;48.740;22.174;2023-02-23T08:21:23;100769.03;;;6.18;63.19
50349;BME280;36250;48.740;22.174;2023-02-23T08:23:49;100773.38;;;6.19;62.99
50349;BME280;36250;48.740;22.174;2023-02-23T08:26:14;100774.03;;;6.21;62.82
50349;BME280;36250;48.740;22.174;2023-02-23T08:28:41;100772.75;;;6.30;62.91
50349;BME280;36250;48.740;22.174;2023-02-23T08:31:11;100766.09;;;6.39;61.84
50349;BME280;36250;48.740;22.174;2023-02-23T08:33:37;100769.22;;;6.36;60.77
50349;BME280;36250;48.740;22.174;2023-02-23T08:36:04;100775.28;;;6.38;61.43
50349;BME280;36250;48.740;22.174;2023-02-23T08:38:30;100769.81;;;6.51;60.94
50349;BME280;36250;48.740;22.174;2023-02-23T08:40:59;100764.81;;;6.61;59.90
50349;BME280;36250;48.740;22.174;2023-02-23T08:43:25;100772.94;;;6.74;59.68
50349;BME280;36250;48.740;22.174;2023-02-23T08:45:50;100764.34;;;6.90;59.68
50349;BME280;36250;48.740;22.174;2023-02-23T08:48:16;100767.63;;;7.05;58.40
50349;BME280;36250;48.740;22.174;2023-02-23T08:50:41;100772.19;;;7.11;57.97
50349;BME280;36250;48.740;22.174;2023-02-23T08:53:06;100772.25;;;6.98;57.56
50349;BME280;36250;48.740;22.174;2023-02-23T08:55:33;100768.09;;;6.83;58.67
50349;BME280;36250;48.740;22.174;2023-02-23T08:57:59;100774.78;;;6.74;59.04
50349;BME280;36250;48.740;22.174;2023-02-23T09:00:25;100767.50;;;6.74;58.79
50349;BME280;36250;48.740;22.174;2023-02-23T09:02:50;100771.88;;;6.75;59.75
50349;BME280;36250;48.740;22.174;2023-02-23T09:05:16;100772.88;;;6.87;59.04
50349;BME280;36250;48.740;22.174;2023-02-23T09:07:42;100775.97;;;6.97;57.60
50349;BME280;36250;48.740;22.174;2023-02-23T09:10:14;100772.44;;;7.03;57.33
50349;BME280;36250;48.740;22.174;2023-02-23T09:12:40;100768.47;;;6.99;56.92
50349;BME280;36250;48.740;22.174;2023-02-23T09:15:06;100771.78;;;7.08;57.51
50349;BME280;36250;48.740;22.174;2023-02-23T09:17:32;100772.38;;;7.16;56.84
50349;BME280;36250;48.740;22.174;2023-02-23T09:19:57;100773.19;;;7.17;56.68
50349;BME280;36250;48.740;22.174;2023-02-23T09:22:22;100769.66;;;7.23;56.41
50349;BME280;36250;48.740;22.174;2023-02-23T09:24:48;100776.25;;;7.34;55.01
50349;BME280;36250;48.740;22.174;2023-02-23T09:27:13;100771.19;;;7.44;53.46
50349;BME280;36250;48.740;22.174;2023-02-23T09:29:39;100771.84;;;7.46;52.80
50349;BME280;36250;48.740;22.174;2023-02-23T09:32:09;100770.97;;;7.52;53.94
50349;BME280;36250;48.740;22.174;2023-02-23T09:34:34;100765.03;;;7.68;53.95
50349;BME280;36250;48.740;22.174;2023-02-23T09:37:03;100768.56;;;7.75;54.39
50349;BME280;36250;48.740;22.174;2023-02-23T09:39:29;100772.22;;;7.87;54.18
50349;BME280;36250;48.740;22.174;2023-02-23T09:48:06;100763.94;;;8.38;51.43
50349;BME280;36250;48.740;22.174;2023-02-23T09:50:34;100763.00;;;8.50;49.79
50349;BME280;36250;48.740;22.174;2023-02-23T09:55:53;100763.31;;;8.61;49.02
50349;BME280;36250;48.740;22.174;2023-02-23T09:58:24;100762.38;;;8.48;49.53
50349;BME280;36250;48.740;22.174;2023-02-23T10:03:38;100759.56;;;8.80;50.12
50349;BME280;36250;48.740;22.174;2023-02-23T10:06:10;100761.97;;;8.88;50.11
50349;BME280;36250;48.740;22.174;2023-02-23T10:16:59;100754.34;;;8.96;49.07
50349;BME280;36250;48.740;22.174;2023-02-23T10:19:42;100745.28;;;9.02;49.26
50349;BME280;36250;48.740;22.174;2023-02-23T10:22:09;100741.97;;;9.00;49.63
50349;BME280;36250;48.740;22.174;2023-02-23T10:24:39;100746.56;;;9.00;48.97
50349;BME280;36250;48.740;22.174;2023-02-23T10:27:18;100741.16;;;9.18;48.99
50349;BME280;36250;48.740;22.174;2023-02-23T10:29:48;100737.13;;;9.39;48.17
50349;BME280;36250;48.740;22.174;2023-02-23T10:32:37;100733.47;;;9.45;47.20
50349;BME280;36250;48.740;22.174;2023-02-23T10:35:13;100729.56;;;9.70;47.40
50349;BME280;36250;48.740;22.174;2023-02-23T10:37:39;100730.63;;;9.69;46.90
50349;BME280;36250;48.740;22.174;2023-02-23T10:40:05;100725.19;;;9.69;46.79
50349;BME280;36250;48.740;22.174;2023-02-23T10:42:31;100719.19;;;9.79;46.70
50349;BME280;36250;48.740;22.174;2023-02-23T10:44:57;100721.72;;;10.04;46.82
50349;BME280;36250;48.740;22.174;2023-02-23T10:47:25;100721.19;;;10.25;45.17
50349;BME280;36250;48.740;22.174;2023-02-23T10:49:54;100718.97;;;10.22;45.36
50349;BME280;36250;48.740;22.174;2023-02-23T10:52:44;100711.00;;;10.20;45.30
50349;BME280;36250;48.740;22.174;2023-02-23T10:55:31;100715.28;;;10.16;46.00
50349;BME280;36250;48.740;22.174;2023-02-23T10:58:13;100707.22;;;10.44;45.94
50349;BME280;36250;48.740;22.174;2023-02-23T11:00:59;100702.75;;;10.50;44.19
50349;BME280;36250;48.740;22.174;2023-02-23T11:03:31;100707.69;;;10.30;45.15
50349;BME280;36250;48.740;22.174;2023-02-23T11:05:57;100705.09;;;10.23;45.25
50349;BME280;36250;48.740;22.174;2023-02-23T11:08:23;100701.22;;;10.31;45.60
50349;BME280;36250;48.740;22.174;2023-02-23T11:10:59;100697.66;;;10.42;45.09
50349;BME280;36250;48.740;22.174;2023-02-23T11:13:27;100694.94;;;10.42;45.94
50349;BME280;36250;48.740;22.174;2023-02-23T11:16:01;100696.84;;;10.53;45.17
50349;BME280;36250;48.740;22.174;2023-02-23T11:18:29;100695.41;;;10.50;44.02
50349;BME280;36250;48.740;22.174;2023-02-23T11:20:55;100691.03;;;10.61;45.06
50349;BME280;36250;48.740;22.174;2023-02-23T11:23:40;100691.50;;;10.58;44.96
50349;BME280;36250;48.740;22.174;2023-02-23T11:26:20;100688.31;;;10.38;45.80
50349;BME280;36250;48.740;22.174;2023-02-23T11:28:51;100683.91;;;10.37;45.44
50349;BME280;36250;48.740;22.174;2023-02-23T11:31:22;100686.19;;;10.40;46.50
50349;BME280;36250;48.740;22.174;2023-02-23T11:33:53;100692.81;;;10.32;45.41
50349;BME280;36250;48.740;22.174;2023-02-23T11:38:59;100694.09;;;10.30;46.11
50349;BME280;36250;48.740;22.174;2023-02-23T11:41:25;100686.56;;;10.32;46.04
50349;BME280;36250;48.740;22.174;2023-02-23T11:43:56;100690.44;;;10.24;47.03
50349;BME280;36250;48.740;22.174;2023-02-23T11:46:22;100687.47;;;10.49;46.43
50349;BME280;36250;48.740;22.174;2023-02-23T11:48:53;100685.81;;;10.48;46.91
50349;BME280;36250;48.740;22.174;2023-02-23T11:51:40;100691.44;;;10.81;46.79
50349;BME280;36250;48.740;22.174;2023-02-23T11:54:20;100681.00;;;11.01;45.83
50349;BME280;36250;48.740;22.174;2023-02-23T11:56:48;100690.22;;;11.00;46.10
50349;BME280;36250;48.740;22.174;2023-02-23T11:59:22;100684.28;;;11.03;46.25
50349;BME280;36250;48.740;22.174;2023-02-23T12:01:53;100673.38;;;10.75;46.27
50349;BME280;36250;48.740;22.174;2023-02-23T12:04:27;100670.50;;;10.82;45.73
50349;BME280;36250;48.740;22.174;2023-02-23T12:10:28;100669.31;;;11.17;46.67
50349;BME280;36250;48.740;22.174;2023-02-23T12:15:35;100671.47;;;11.44;44.86
50349;BME280;36250;48.740;22.174;2023-02-23T12:20:55;100662.94;;;11.40;44.76
50349;BME280;36250;48.740;22.174;2023-02-23T12:23:25;100666.41;;;11.36;44.07
50349;BME280;36250;48.740;22.174;2023-02-23T12:26:03;100662.09;;;11.51;44.44
50349;BME280;36250;48.740;22.174;2023-02-23T12:28:36;100658.84;;;11.54;44.89
50349;BME280;36250;48.740;22.174;2023-02-23T12:31:41;100653.13;;;11.84;44.10
50349;BME280;36250;48.740;22.174;2023-02-23T12:34:13;100649.41;;;12.07;44.00
50349;BME280;36250;48.740;22.174;2023-02-23T12:37:03;100648.56;;;12.23;43.58
50349;BME280;36250;48.740;22.174;2023-02-23T12:39:42;100654.75;;;12.35;42.45
50349;BME280;36250;48.740;22.174;2023-02-23T12:44:55;100639.97;;;16.14;35.37
50349;BME280;36250;48.740;22.174;2023-02-23T12:50:31;100621.38;;;18.69;31.53
50349;BME280;36250;48.740;22.174;2023-02-23T13:01:38;100602.75;;;22.26;26.26
50349;BME280;36250;48.740;22.174;2023-02-23T13:04:40;100605.34;;;21.78;25.61
50349;BME280;36250;48.740;22.174;2023-02-23T13:07:19;100604.47;;;21.33;26.30
50349;BME280;36250;48.740;22.174;2023-02-23T13:13:18;100604.69;;;21.23;25.36
50349;BME280;36250;48.740;22.174;2023-02-23T13:20:59;100595.25;;;21.96;25.38
50349;BME280;36250;48.740;22.174;2023-02-23T13:26:53;100594.19;;;22.14;23.92
50349;BME280;36250;48.740;22.174;2023-02-23T13:29:41;100590.56;;;22.05;24.49
50349;BME280;36250;48.740;22.174;2023-02-23T13:32:12;100595.28;;;22.04;24.64
50349;BME280;36250;48.740;22.174;2023-02-23T13:34:43;100591.16;;;21.57;25.50
50349;BME280;36250;48.740;22.174;2023-02-23T13:37:11;100590.34;;;21.21;25.29
50349;BME280;36250;48.740;22.174;2023-02-23T13:39:51;100592.22;;;20.85;26.40
50349;BME280;36250;48.740;22.174;2023-02-23T13:45:49;100592.28;;;18.81;28.01
50349;BME280;36250;48.740;22.174;2023-02-23T13:51:07;100585.78;;;17.62;30.31
50349;BME280;36250;48.740;22.174;2023-02-23T13:53:43;100587.91;;;17.27;31.45
50349;BME280;36250;48.740;22.174;2023-02-23T13:56:15;100584.09;;;17.23;31.57
50349;BME280;36250;48.740;22.174;2023-02-23T13:59:07;100590.44;;;16.49;32.64
50349;BME280;36250;48.740;22.174;2023-02-23T14:01:38;100589.19;;;15.66;34.18
50349;BME280;36250;48.740;22.174;2023-02-23T14:04:14;100585.81;;;15.19;35.36
50349;BME280;36250;48.740;22.174;2023-02-23T14:06:53;100586.28;;;14.90;36.67
50349;BME280;36250;48.740;22.174;2023-02-23T14:09:23;100586.88;;;14.40;36.90
50349;BME280;36250;48.740;22.174;2023-02-23T14:12:16;100581.72;;;14.07;38.08
50349;BME280;36250;48.740;22.174;2023-02-23T14:14:47;100587.16;;;14.02;38.49
50349;BME280;36250;48.740;22.174;2023-02-23T14:19:43;100576.34;;;13.80;38.86
50349;BME280;36250;48.740;22.174;2023-02-23T14:22:12;100573.44;;;13.29;39.74
50349;BME280;36250;48.740;22.174;2023-02-23T14:24:38;100576.63;;;12.99;40.13
50349;BME280;36250;48.740;22.174;2023-02-23T14:29:41;100569.31;;;12.78;40.86
50349;BME280;36250;48.740;22.174;2023-02-23T14:34:58;100570.84;;;12.69;40.96
50349;BME280;36250;48.740;22.174;2023-02-23T14:37:34;100574.66;;;12.46;41.56
50349;BME280;36250;48.740;22.174;2023-02-23T14:40:04;100570.72;;;12.37;41.84
50349;BME280;36250;48.740;22.174;2023-02-23T14:42:33;100565.94;;;12.27;42.28
50349;BME280;36250;48.740;22.174;2023-02-23T14:45:24;100570.50;;;12.22;42.28
50349;BME280;36250;48.740;22.174;2023-02-23T14:47:52;100562.94;;;12.07;42.63